Time;durP1;ratioP1;P1;durP2;ratioP2;P2;SDS_P1;SDS_P2;PMS_P1;PMS_P2;Temp;Humidity;BMP_temperature;BMP_pressure;BME280_temperature;BME280_humidity;BME280_pressure;Samples;Min_cycle;Max_cycle;Signal;HPM_P1;HPM_P2
2023/01/07 00:01:13;;;;;;;16.02;10.57;;;4.80;99.90;;;;;;5036238;28;20045;-64
2023/01/07 00:03:40;;;;;;;17.48;11.23;;;4.80;99.90;;;;;;5034381;28;20045;-63
2023/01/07 00:06:13;;;;;;;14.07;9.80;;;4.80;99.90;;;;;;5035936;28;20048;-64
2023/01/07 00:08:42;;;;;;;13.43;9.95;;;4.80;99.90;;;;;;5033713;28;20084;-64
2023/01/07 00:11:15;;;;;;;13.00;9.43;;;4.80;99.90;;;;;;5031990;28;20056;-63
2023/01/07 00:13:43;;;;;;;11.60;8.93;;;4.80;99.90;;;;;;5036328;28;20168;-63
2023/01/07 00:16:15;;;;;;;13.48;8.82;;;4.80;99.90;;;;;;5038674;28;20041;-63
2023/01/07 00:18:42;;;;;;;12.93;8.77;;;4.80;99.90;;;;;;5039178;28;20049;-64
2023/01/07 00:21:12;;;;;;;10.77;8.02;;;4.80;99.90;;;;;;5038899;28;20033;-64
2023/01/07 00:23:40;;;;;;;11.73;7.38;;;4.80;99.90;;;;;;5038900;28;20102;-64
2023/01/07 00:26:14;;;;;;;10.27;8.13;;;4.80;99.90;;;;;;5039323;28;20049;-64
2023/01/07 00:28:42;;;;;;;11.57;8.65;;;4.80;99.90;;;;;;5038947;28;20044;-64
2023/01/07 00:31:14;;;;;;;12.63;9.07;;;4.80;99.90;;;;;;5038316;28;20121;-64
2023/01/07 00:34:25;;;;;;;8.48;7.10;;;4.70;99.90;;;;;;5037729;28;20068;-64
2023/01/07 00:36:38;;;;;;;10.98;7.70;;;4.80;99.90;;;;;;5038123;28;20060;-64
2023/01/07 00:39:12;;;;;;;7.93;6.93;;;4.80;99.90;;;;;;5053337;28;20037;-63
2023/01/07 00:41:39;;;;;;;9.00;7.05;;;4.80;99.90;;;;;;5038627;28;20045;-63
2023/01/07 00:44:06;;;;;;;7.95;6.88;;;4.80;99.90;;;;;;5027700;28;20064;-64
2023/01/07 00:46:33;;;;;;;8.68;7.15;;;4.80;99.90;;;;;;5038565;28;20062;-64
2023/01/07 00:49:00;;;;;;;10.40;7.00;;;4.80;99.90;;;;;;5054291;28;20080;-64
2023/01/07 00:51:27;;;;;;;10.85;7.68;;;4.80;99.90;;;;;;5038620;28;20064;-63
2023/01/07 00:53:54;;;;;;;;;;;4.80;99.90;;;;;;5037584;28;20049;-64
2023/01/07 00:56:21;;;;;;;8.35;6.50;;;4.80;99.90;;;;;;5038579;28;19940;-63
2023/01/07 00:58:47;;;;;;;8.40;6.53;;;4.80;99.90;;;;;;5036639;28;20048;-64
2023/01/07 01:01:15;;;;;;;9.13;6.57;;;4.80;99.90;;;;;;5039000;28;20774;-65
2023/01/07 01:03:41;;;;;;;9.13;7.13;;;4.80;99.90;;;;;;5037762;28;20080;-64
2023/01/07 01:06:14;;;;;;;7.60;6.60;;;4.90;99.90;;;;;;5019959;28;20036;-63
2023/01/07 01:08:43;;;;;;;8.90;7.55;;;4.90;99.90;;;;;;5037420;28;20094;-64
2023/01/07 01:11:12;;;;;;;7.93;5.65;;;4.90;99.90;;;;;;5050888;28;20574;-64
2023/01/07 01:13:40;;;;;;;7.30;5.63;;;4.90;99.90;;;;;;5036571;28;20545;-63
2023/01/07 01:16:15;;;;;;;7.70;5.72;;;4.90;99.90;;;;;;5038028;28;20045;-64
2023/01/07 01:18:42;;;;;;;10.77;6.65;;;4.90;99.90;;;;;;5036708;28;20337;-64
2023/01/07 01:21:12;;;;;;;8.65;6.70;;;4.90;99.90;;;;;;5029215;28;20071;-63
2023/01/07 01:23:39;;;;;;;10.27;7.05;;;4.90;99.90;;;;;;5036755;28;20037;-64
2023/01/07 01:26:12;;;;;;;7.55;5.80;;;4.90;99.90;;;;;;5028830;28;20043;-64
2023/01/07 01:28:39;;;;;;;8.00;6.13;;;4.90;99.90;;;;;;5037844;28;20049;-64
2023/01/07 01:31:08;;;;;;;6.97;5.50;;;5.00;99.90;;;;;;5036733;28;20159;-63
2023/01/07 01:33:42;;;;;;;8.13;6.18;;;5.00;99.90;;;;;;5038678;28;20041;-64
2023/01/07 01:36:11;;;;;;;;;;;4.90;99.90;;;;;;5053399;28;20047;-64
2023/01/07 01:38:39;;;;;;;7.72;6.22;;;5.00;99.90;;;;;;5037434;28;20421;-64
2023/01/07 01:41:06;;;;;;;8.18;6.38;;;5.00;99.90;;;;;;5035885;28;20450;-64
2023/01/07 01:43:39;;;;;;;6.63;5.55;;;5.00;99.90;;;;;;5053417;28;20095;-64
2023/01/07 01:46:16;;;;;;;8.88;6.13;;;4.90;99.90;;;;;;5028656;28;20695;-64
2023/01/07 01:49:01;;;;;;;7.45;5.95;;;5.00;99.90;;;;;;5037623;28;20068;-64
2023/01/07 01:51:33;;;;;;;10.02;7.30;;;5.00;99.90;;;;;;5036860;28;20060;-64
2023/01/07 01:54:04;;;;;;;11.40;8.02;;;5.00;99.90;;;;;;5028917;28;20060;-64
2023/01/07 01:56:38;;;;;;;9.63;7.80;;;5.00;99.90;;;;;;5032313;28;20056;-64
2023/01/07 01:59:09;;;;;;;9.25;6.88;;;5.00;99.90;;;;;;5035281;28;20036;-64
2023/01/07 02:01:37;;;;;;;9.95;7.78;;;5.00;99.90;;;;;;5036552;28;20049;-64
2023/01/07 02:04:14;;;;;;;9.57;7.38;;;5.00;99.90;;;;;;5035768;28;20068;-64
2023/01/07 02:06:55;;;;;;;12.15;7.78;;;5.00;99.90;;;;;;5036129;28;20045;-64
2023/01/07 02:09:23;;;;;;;7.38;6.18;;;5.10;99.90;;;;;;5034945;28;20059;-64
2023/01/07 02:11:53;;;;;;;8.82;6.88;;;5.00;99.90;;;;;;5051592;28;20507;-64
2023/01/07 02:14:45;;;;;;;8.77;7.50;;;5.00;99.90;;;;;;5028973;28;20060;-64
2023/01/07 02:17:22;;;;;;;8.68;7.25;;;5.10;99.90;;;;;;5037108;28;20106;-64
2023/01/07 02:19:57;;;;;;;9.55;7.38;;;5.00;99.90;;;;;;5037417;28;20515;-63
2023/01/07 02:22:59;;;;;;;8.43;6.32;;;5.00;99.90;;;;;;5035908;28;20135;-64
2023/01/07 02:25:49;;;;;;;7.53;5.97;;;5.00;99.90;;;;;;5052102;28;20071;-64
2023/01/07 02:28:53;;;;;;;8.48;6.90;;;5.10;99.90;;;;;;5033969;28;20060;-65
2023/01/07 02:31:40;;;;;;;9.50;7.47;;;5.00;99.90;;;;;;5034150;28;20060;-64
2023/01/07 02:34:19;;;;;;;9.30;7.45;;;5.00;99.90;;;;;;5035553;28;20207;-63
2023/01/07 02:37:01;;;;;;;9.82;7.60;;;5.00;99.90;;;;;;5050700;28;20053;-64
2023/01/07 02:39:52;;;;;;;8.23;6.28;;;5.00;99.90;;;;;;5034848;28;20052;-64
2023/01/07 02:42:46;;;;;;;9.43;7.07;;;5.00;99.90;;;;;;5036156;28;20033;-63
2023/01/07 02:45:35;;;;;;;11.60;7.75;;;5.00;99.90;;;;;;5052386;28;20083;-64
2023/01/07 02:48:07;;;;;;;8.52;6.80;;;5.00;99.90;;;;;;5034537;28;20106;-63
2023/01/07 02:50:34;;;;;;;9.45;7.53;;;5.00;99.90;;;;;;5036586;28;20083;-65
2023/01/07 02:53:00;;;;;;;;;;;5.00;99.90;;;;;;5036644;28;20048;-63
2023/01/07 02:55:51;;;;;;;9.15;7.57;;;5.00;99.90;;;;;;5034779;28;20032;-64
2023/01/07 02:58:48;;;;;;;10.30;7.68;;;5.00;99.90;;;;;;5035370;28;20399;-63
2023/01/07 03:01:45;;;;;;;9.82;7.20;;;5.00;99.90;;;;;;5035207;28;20753;-64
2023/01/07 03:04:17;;;;;;;8.63;6.60;;;5.00;99.90;;;;;;5034553;28;20099;-63
2023/01/07 03:07:02;;;;;;;10.13;7.82;;;5.00;99.90;;;;;;5050980;28;20522;-63
2023/01/07 03:09:43;;;;;;;11.05;8.57;;;5.00;99.90;;;;;;5051353;28;20053;-64
2023/01/07 03:12:29;;;;;;;10.02;7.68;;;5.00;99.90;;;;;;5034736;28;20059;-64
2023/01/07 03:15:07;;;;;;;9.65;7.40;;;5.00;99.90;;;;;;5024606;28;20499;-64
2023/01/07 03:17:41;;;;;;;12.10;9.13;;;5.00;99.90;;;;;;5036861;28;20094;-64
2023/01/07 03:20:10;;;;;;;10.43;8.25;;;5.00;99.90;;;;;;5034136;28;20664;-64
2023/01/07 03:22:39;;;;;;;10.65;7.65;;;5.00;99.90;;;;;;5036007;28;20036;-64
2023/01/07 03:25:06;;;;;;;12.55;9.60;;;5.00;99.90;;;;;;5035286;28;20096;-64
2023/01/07 03:27:35;;;;;;;11.68;9.10;;;5.00;99.90;;;;;;5036262;28;20048;-64
2023/01/07 03:30:07;;;;;;;10.95;7.95;;;5.00;99.90;;;;;;5035588;28;20099;-63
2023/01/07 03:32:43;;;;;;;11.45;8.07;;;5.00;99.90;;;;;;5035341;28;20053;-64
2023/01/07 03:35:10;;;;;;;12.50;9.38;;;5.00;99.90;;;;;;5034753;28;20052;-64
2023/01/07 03:37:39;;;;;;;;;;;5.00;99.90;;;;;;5034662;28;20110;-63
2023/01/07 03:40:09;;;;;;;11.32;8.55;;;5.00;99.90;;;;;;5036344;28;20047;-64
2023/01/07 03:42:39;;;;;;;11.20;8.95;;;5.00;99.90;;;;;;5025131;28;20632;-64
2023/01/07 03:45:18;;;;;;;12.45;8.98;;;5.00;99.90;;;;;;5025126;28;20056;-64
2023/01/07 03:47:47;;;;;;;12.95;9.80;;;5.00;99.90;;;;;;5028974;28;20644;-64
2023/01/07 03:50:15;;;;;;;10.88;7.82;;;5.00;99.90;;;;;;5036797;28;20052;-63
2023/01/07 03:52:44;;;;;;;10.00;7.60;;;5.00;99.90;;;;;;5055165;28;20044;-64
2023/01/07 03:55:11;;;;;;;9.70;7.47;;;5.00;99.90;;;;;;5038008;28;20048;-64
2023/01/07 03:57:38;;;;;;;10.15;8.05;;;5.00;99.90;;;;;;5055523;28;20053;-63
2023/01/07 04:00:08;;;;;;;10.13;7.75;;;5.00;99.90;;;;;;5038341;28;20559;-64
2023/01/07 04:02:43;;;;;;;13.02;10.07;;;4.90;99.90;;;;;;5052999;28;20048;-65
2023/01/07 04:05:20;;;;;;;11.98;8.77;;;4.90;99.90;;;;;;5038568;28;20703;-64
2023/01/07 04:07:47;;;;;;;9.45;7.55;;;4.90;99.90;;;;;;5052975;28;20727;-64
2023/01/07 04:10:14;;;;;;;11.80;8.93;;;4.80;99.90;;;;;;5054003;28;20483;-64
2023/01/07 04:12:41;;;;;;;;;;;4.80;99.90;;;;;;5052217;28;20048;-64
2023/01/07 04:15:08;;;;;;;11.85;8.70;;;4.80;99.90;;;;;;5051164;28;19960;-63
2023/01/07 04:17:34;;;;;;;10.85;8.57;;;4.80;99.90;;;;;;5038133;28;20045;-64
2023/01/07 04:20:01;;;;;;;11.57;8.48;;;4.70;99.90;;;;;;5037871;28;20115;-64
2023/01/07 04:22:29;;;;;;;11.77;9.02;;;4.70;99.90;;;;;;5036933;28;20135;-64
2023/01/07 04:24:56;;;;;;;14.05;10.70;;;4.70;99.90;;;;;;5036768;28;20033;-64
2023/01/07 04:27:23;;;;;;;12.70;9.70;;;4.60;99.90;;;;;;5028965;28;20609;-63
2023/01/07 04:29:51;;;;;;;12.82;10.23;;;4.50;99.90;;;;;;5036823;28;20128;-64
2023/01/07 04:32:18;;;;;;;12.80;10.25;;;4.50;99.90;;;;;;5036233;28;20053;-64
2023/01/07 04:34:45;;;;;;;13.50;9.73;;;4.50;99.90;;;;;;5036828;28;20330;-64
2023/01/07 04:37:12;;;;;;;13.38;10.48;;;4.40;99.90;;;;;;5054004;28;20130;-64
2023/01/07 04:39:39;;;;;;;12.43;9.25;;;4.30;99.90;;;;;;5030407;28;20045;-64
2023/01/07 04:42:06;;;;;;;;;;;4.20;99.90;;;;;;5038306;28;20140;-64
2023/01/07 04:44:33;;;;;;;12.35;8.63;;;4.20;99.90;;;;;;5052408;28;20554;-64
2023/01/07 04:46:59;;;;;;;;;;;4.10;99.90;;;;;;5037707;28;20288;-63
2023/01/07 04:49:26;;;;;;;11.82;8.65;;;4.10;99.90;;;;;;5038916;28;19932;-64
2023/01/07 04:51:54;;;;;;;14.65;9.98;;;4.00;99.90;;;;;;5036400;28;20602;-64
2023/01/07 04:54:21;;;;;;;13.07;9.55;;;4.00;99.90;;;;;;5036335;28;20062;-63
2023/01/07 04:56:48;;;;;;;;;;;3.90;99.90;;;;;;5053437;28;20048;-63
2023/01/07 04:59:15;;;;;;;11.65;9.13;;;3.80;99.90;;;;;;5035472;28;20007;-63
2023/01/07 05:01:42;;;;;;;12.07;8.60;;;3.80;99.90;;;;;;5036605;28;20045;-64
2023/01/07 05:04:09;;;;;;;12.07;9.63;;;3.70;99.90;;;;;;5051240;28;20107;-64
2023/01/07 05:06:37;;;;;;;13.20;9.70;;;3.70;99.90;;;;;;5053230;28;20687;-64
2023/01/07 05:09:04;;;;;;;17.08;11.07;;;3.60;99.90;;;;;;5026746;28;20135;-63
2023/01/07 05:11:31;;;;;;;18.45;12.38;;;3.60;99.90;;;;;;5028788;28;20041;-64
2023/01/07 05:14:00;;;;;;;16.85;11.25;;;3.50;99.90;;;;;;5025955;28;20458;-64
2023/01/07 05:16:30;;;;;;;16.05;11.25;;;3.50;99.90;;;;;;5027704;28;20044;-64
2023/01/07 05:19:00;;;;;;;15.25;10.82;;;3.40;99.90;;;;;;5035773;28;20124;-64
2023/01/07 05:21:29;;;;;;;15.90;11.85;;;3.40;99.90;;;;;;5051874;28;20045;-64
2023/01/07 05:23:56;;;;;;;15.93;10.98;;;3.30;99.90;;;;;;5035860;28;20081;-63
2023/01/07 05:26:23;;;;;;;17.60;12.20;;;3.30;99.90;;;;;;5035647;28;20132;-64
2023/01/07 05:28:51;;;;;;;14.95;10.75;;;3.20;99.90;;;;;;5052872;28;20060;-64
2023/01/07 05:31:19;;;;;;;16.27;11.73;;;3.10;99.90;;;;;;5030004;28;20720;-64
2023/01/07 05:33:46;;;;;;;18.10;12.23;;;3.10;99.90;;;;;;5036957;28;20053;-63
2023/01/07 05:36:13;;;;;;;18.20;12.38;;;3.00;99.90;;;;;;5038224;28;20098;-63
2023/01/07 05:38:40;;;;;;;20.33;14.10;;;2.90;99.90;;;;;;5029318;28;20049;-64
2023/01/07 05:41:07;;;;;;;;;;;2.90;99.90;;;;;;5053496;28;20044;-63
2023/01/07 05:43:35;;;;;;;18.60;11.35;;;2.80;99.90;;;;;;5036375;28;19924;-63
2023/01/07 05:46:02;;;;;;;;;;;2.80;99.90;;;;;;5037864;28;20041;-63
2023/01/07 05:48:28;;;;;;;16.65;11.82;;;2.70;99.90;;;;;;5037483;28;19928;-64
2023/01/07 05:50:55;;;;;;;;;;;2.70;99.90;;;;;;5037643;28;20044;-63
2023/01/07 05:53:22;;;;;;;22.98;14.23;;;2.70;99.90;;;;;;5037746;28;20390;-63
2023/01/07 05:55:55;;;;;;;19.55;13.10;;;2.60;99.90;;;;;;5038308;28;20705;-63
2023/01/07 05:58:21;;;;;;;18.80;12.43;;;2.60;99.90;;;;;;5037119;28;20087;-64
2023/01/07 06:00:48;;;;;;;23.00;13.13;;;2.50;99.90;;;;;;5036940;28;20049;-64
2023/01/07 06:03:15;;;;;;;19.45;14.15;;;2.40;99.90;;;;;;5033175;28;20033;-64
2023/01/07 06:05:42;;;;;;;;;;;2.40;99.90;;;;;;5037492;28;20375;-63
2023/01/07 06:08:08;;;;;;;21.73;13.80;;;2.40;99.90;;;;;;5038170;28;20298;-64
2023/01/07 06:10:35;;;;;;;19.95;13.93;;;2.40;99.90;;;;;;5035729;28;20068;-64
2023/01/07 06:13:02;;;;;;;23.00;15.00;;;2.30;99.90;;;;;;5038583;28;20045;-63
2023/01/07 06:15:30;;;;;;;19.08;13.63;;;2.30;99.90;;;;;;5037384;28;20083;-63
2023/01/07 06:17:56;;;;;;;19.40;13.02;;;2.20;99.90;;;;;;5036264;28;20712;-64
2023/01/07 06:20:23;;;;;;;;;;;2.20;99.90;;;;;;5038726;28;20037;-64
2023/01/07 06:22:50;;;;;;;19.48;12.55;;;2.20;99.90;;;;;;5052629;28;20019;-64
2023/01/07 06:25:17;;;;;;;;;;;2.20;99.90;;;;;;5038542;28;20103;-64
2023/01/07 06:27:43;;;;;;;17.42;12.70;;;2.20;99.90;;;;;;5036635;28;19924;-64
2023/01/07 06:30:10;;;;;;;;;;;2.10;99.90;;;;;;5037730;28;20033;-64
2023/01/07 06:32:39;;;;;;;17.90;11.60;;;2.10;99.90;;;;;;5038173;28;20003;-64
2023/01/07 06:35:07;;;;;;;17.27;11.52;;;2.10;99.90;;;;;;5035689;28;20140;-65
2023/01/07 06:37:34;;;;;;;18.70;11.90;;;2.10;99.90;;;;;;5037766;28;20527;-64
2023/01/07 06:40:01;;;;;;;;;;;2.10;99.90;;;;;;5038372;28;20511;-64
2023/01/07 06:42:27;;;;;;;21.35;14.13;;;2.00;99.90;;;;;;5037348;28;19924;-64
2023/01/07 06:44:54;;;;;;;22.83;13.73;;;2.00;99.90;;;;;;5038189;28;20503;-64
2023/01/07 06:47:22;;;;;;;19.42;12.90;;;1.90;99.90;;;;;;5037439;28;20694;-64
2023/01/07 06:49:48;;;;;;;23.90;14.50;;;1.90;99.90;;;;;;5038376;28;20825;-64
2023/01/07 06:52:15;;;;;;;22.52;14.20;;;1.80;99.90;;;;;;5037979;28;20819;-56
2023/01/07 06:54:42;;;;;;;20.17;13.57;;;1.80;99.90;;;;;;5037208;28;20766;-53
2023/01/07 06:57:08;;;;;;;;;;;1.80;99.90;;;;;;5038815;28;20542;-50
2023/01/07 06:59:35;;;;;;;21.23;13.27;;;1.70;99.90;;;;;;5035725;28;20285;-53
2023/01/07 07:02:01;;;;;;;20.55;13.60;;;1.70;99.90;;;;;;5037346;28;20531;-53
2023/01/07 07:04:28;;;;;;;;;;;1.70;99.90;;;;;;5037567;28;20048;-53
2023/01/07 07:06:55;;;;;;;21.75;13.90;;;1.70;99.90;;;;;;5037596;28;19960;-54
2023/01/07 07:09:22;;;;;;;;;;;1.70;99.90;;;;;;5037130;28;20041;-55
2023/01/07 07:11:48;;;;;;;19.23;11.82;;;1.70;99.90;;;;;;5036515;28;19928;-55
2023/01/07 07:14:15;;;;;;;;;;;1.70;99.90;;;;;;5037648;28;20048;-54
2023/01/07 07:16:41;;;;;;;19.08;13.00;;;1.70;99.90;;;;;;5037265;28;19931;-51
2023/01/07 07:19:08;;;;;;;;;;;1.70;99.90;;;;;;5034981;28;20041;-54
2023/01/07 07:21:35;;;;;;;18.35;11.98;;;1.70;99.90;;;;;;5037383;28;19932;-54
2023/01/07 07:24:01;;;;;;;18.25;11.93;;;1.60;99.90;;;;;;5036211;28;20118;-53
2023/01/07 07:26:28;;;;;;;23.27;12.63;;;1.70;99.90;;;;;;5037510;28;20063;-54
2023/01/07 07:28:55;;;;;;;;;;;1.70;99.90;;;;;;5037034;28;20053;-54
2023/01/07 07:31:21;;;;;;;20.58;12.63;;;1.60;99.90;;;;;;5036457;28;19920;-53
2023/01/07 07:33:49;;;;;;;24.42;12.15;;;1.70;99.90;;;;;;5037206;28;20045;-56
2023/01/07 07:36:16;;;;;;;;;;;1.70;99.90;;;;;;5036954;28;20041;-58
2023/01/07 07:38:43;;;;;;;22.08;13.40;;;1.70;99.90;;;;;;5037300;28;19936;-54
2023/01/07 07:41:09;;;;;;;;;;;1.70;99.90;;;;;;5037598;28;20132;-53
2023/01/07 07:43:36;;;;;;;20.58;12.07;;;1.60;99.90;;;;;;5036479;28;19950;-53
2023/01/07 07:46:03;;;;;;;17.60;12.15;;;1.70;99.90;;;;;;5036981;28;20120;-54
2023/01/07 07:48:30;;;;;;;17.27;11.65;;;1.70;99.90;;;;;;5035951;28;20045;-50
2023/01/07 07:50:57;;;;;;;24.33;15.13;;;1.70;99.90;;;;;;5037771;28;20041;-54
2023/01/07 07:53:24;;;;;;;18.83;11.88;;;1.70;99.90;;;;;;5037103;28;20918;-53
2023/01/07 07:55:52;;;;;;;;;;;1.80;99.90;;;;;;5037105;28;20099;-51
2023/01/07 07:58:18;;;;;;;;;;;1.80;99.90;;;;;;5037730;28;19924;-53
2023/01/07 08:00:45;;;;;;;21.10;12.65;;;1.80;99.90;;;;;;5035933;28;19925;-51
2023/01/07 08:03:12;;;;;;;19.13;12.90;;;1.90;99.90;;;;;;5036675;28;20111;-53
2023/01/07 08:05:40;;;;;;;;;;;1.90;99.90;;;;;;5037465;28;20059;-53
2023/01/07 08:08:10;;;;;;;23.05;13.15;;;2.00;99.90;;;;;;5036245;28;20586;-53
2023/01/07 08:10:37;;;;;;;23.33;12.68;;;2.10;99.90;;;;;;5036916;28;20557;-53
2023/01/07 08:13:05;;;;;;;20.65;13.38;;;2.10;99.90;;;;;;5036251;28;20067;-54
2023/01/07 08:15:31;;;;;;;19.75;13.07;;;2.20;99.90;;;;;;5036389;28;20048;-52
2023/01/07 08:18:04;;;;;;;23.75;14.63;;;2.20;99.90;;;;;;5037315;28;20505;-53
2023/01/07 08:20:32;;;;;;;21.30;13.30;;;2.30;99.90;;;;;;5033828;28;20044;-54
2023/01/07 08:22:59;;;;;;;21.75;12.98;;;2.30;99.90;;;;;;5036346;28;20136;-53
2023/01/07 08:25:28;;;;;;;20.45;13.02;;;2.40;99.90;;;;;;5035416;28;20041;-53
2023/01/07 08:27:55;;;;;;;19.00;13.02;;;2.40;99.90;;;;;;5034277;28;20127;-54
2023/01/07 08:30:22;;;;;;;18.60;12.60;;;2.50;99.90;;;;;;5036376;28;20041;-53
2023/01/07 08:32:49;;;;;;;19.02;12.10;;;2.60;99.90;;;;;;5035705;28;20048;-57
2023/01/07 08:35:16;;;;;;;19.67;12.73;;;2.70;99.90;;;;;;5026053;28;20056;-53
2023/01/07 08:37:43;;;;;;;20.52;12.40;;;2.70;99.90;;;;;;5025110;28;20936;-61
2023/01/07 08:40:11;;;;;;;20.13;11.95;;;2.80;99.90;;;;;;5025695;28;20045;-53
2023/01/07 08:42:39;;;;;;;21.90;13.25;;;2.80;99.90;;;;;;5025933;28;20126;-52
2023/01/07 08:45:08;;;;;;;17.00;11.85;;;2.90;99.90;;;;;;5024608;28;20349;-51
2023/01/07 08:47:35;;;;;;;20.40;13.43;;;3.00;99.90;;;;;;5025799;28;20055;-52
2023/01/07 08:50:03;;;;;;;19.75;13.77;;;3.00;99.90;;;;;;5025482;28;20075;-53
2023/01/07 08:52:29;;;;;;;21.60;13.55;;;3.10;99.90;;;;;;5026098;28;20106;-54
2023/01/07 08:54:56;;;;;;;;;;;3.10;99.90;;;;;;5026277;28;20052;-59
2023/01/07 08:57:23;;;;;;;19.77;13.45;;;3.20;99.90;;;;;;5024730;28;20258;-57
2023/01/07 08:59:50;;;;;;;;;;;3.30;99.90;;;;;;5026719;28;20133;-54
2023/01/07 09:02:18;;;;;;;18.73;12.80;;;3.30;99.90;;;;;;5023538;28;19998;-52
2023/01/07 09:04:45;;;;;;;19.05;12.13;;;3.30;99.90;;;;;;5025579;28;20106;-54
2023/01/07 09:07:12;;;;;;;;;;;3.40;99.90;;;;;;5026409;28;20996;-51
2023/01/07 09:09:38;;;;;;;16.52;11.68;;;3.40;99.90;;;;;;5024807;28;19962;-53
2023/01/07 09:12:06;;;;;;;23.30;13.07;;;3.50;99.90;;;;;;5025267;28;20709;-55
2023/01/07 09:14:36;;;;;;;22.35;13.75;;;3.50;99.90;;;;;;5024484;28;20040;-51
2023/01/07 09:17:03;;;;;;;;;;;3.60;99.90;;;;;;5026539;28;20047;-57
2023/01/07 09:19:30;;;;;;;20.52;12.55;;;3.60;99.90;;;;;;5024695;28;19928;-58
2023/01/07 09:21:56;;;;;;;;;;;3.70;99.90;;;;;;5023229;28;20043;-59
2023/01/07 09:24:23;;;;;;;19.90;13.48;;;3.70;99.90;;;;;;5025407;28;19925;-58
2023/01/07 09:26:50;;;;;;;18.95;12.45;;;3.80;99.90;;;;;;5039472;28;20142;-56
2023/01/07 09:29:17;;;;;;;;;;;3.80;99.90;;;;;;5024841;28;20052;-52
2023/01/07 09:31:44;;;;;;;19.83;12.73;;;3.80;99.90;;;;;;5024914;28;19925;-53
2023/01/07 09:34:11;;;;;;;22.30;13.98;;;3.90;99.90;;;;;;5023495;28;20049;-52
2023/01/07 09:36:37;;;;;;;20.10;13.60;;;4.00;99.90;;;;;;5016722;28;20636;-58
2023/01/07 09:39:04;;;;;;;;;;;3.90;99.90;;;;;;5016960;28;21011;-54
2023/01/07 09:41:56;;;;;;;21.73;14.18;;;4.00;99.90;;;;;;5024698;28;20060;-54
2023/01/07 09:44:37;;;;;;;21.27;12.85;;;4.00;99.90;;;;;;5024081;28;20397;-52
2023/01/07 09:47:05;;;;;;;19.98;14.02;;;4.00;99.90;;;;;;5021110;28;20049;-49
2023/01/07 09:49:32;;;;;;;20.92;13.68;;;4.10;99.90;;;;;;5024779;28;20231;-54
2023/01/07 09:52:11;;;;;;;20.95;13.25;;;4.10;99.90;;;;;;5023641;28;20049;-54
2023/01/07 09:54:39;;;;;;;18.45;12.10;;;4.20;99.90;;;;;;5024014;28;20082;-52
2023/01/07 09:57:13;;;;;;;18.25;12.63;;;4.20;99.90;;;;;;5024362;28;20275;-52
2023/01/07 09:59:40;;;;;;;20.80;13.63;;;4.30;99.90;;;;;;5024182;28;20303;-51
2023/01/07 10:02:44;;;;;;;17.98;12.75;;;4.30;99.90;;;;;;5016430;28;20037;-53
2023/01/07 10:05:33;;;;;;;19.13;13.07;;;4.40;99.90;;;;;;5023367;28;20045;-55
2023/01/07 10:08:18;;;;;;;17.65;12.00;;;4.50;99.90;;;;;;5024046;28;20084;-52
2023/01/07 10:11:12;;;;;;;17.15;12.32;;;4.50;99.90;;;;;;5022526;28;20041;-52
2023/01/07 10:14:06;;;;;;;21.63;13.50;;;4.60;99.90;;;;;;5013251;28;20207;-55
2023/01/07 10:16:38;;;;;;;19.48;12.55;;;4.60;99.90;;;;;;5018649;28;20139;-54
2023/01/07 10:19:35;;;;;;;18.20;11.02;;;4.70;99.90;;;;;;5039065;28;20053;-53
2023/01/07 10:22:15;;;;;;;18.23;12.32;;;4.70;99.90;;;;;;5021320;28;20147;-55
2023/01/07 10:24:46;;;;;;;19.15;11.23;;;4.80;99.90;;;;;;5022621;28;20095;-54
2023/01/07 10:27:15;;;;;;;22.10;13.75;;;4.80;99.90;;;;;;5023822;28;20073;-55
2023/01/07 10:29:49;;;;;;;19.63;13.32;;;4.90;99.90;;;;;;5019620;28;20410;-53
2023/01/07 10:32:19;;;;;;;24.20;15.02;;;5.00;99.90;;;;;;5023482;28;20053;-53
2023/01/07 10:34:48;;;;;;;24.83;16.10;;;5.00;99.90;;;;;;5022858;28;20102;-53
2023/01/07 10:37:27;;;;;;;26.27;16.00;;;5.00;99.90;;;;;;5024021;28;20106;-53
2023/01/07 10:40:24;;;;;;;20.77;14.13;;;5.10;99.90;;;;;;5022019;28;20122;-53
2023/01/07 10:43:28;;;;;;;17.52;12.60;;;5.10;99.90;;;;;;5022494;28;20489;-53
2023/01/07 10:46:29;;;;;;;19.10;12.68;;;5.10;99.90;;;;;;5022824;28;20136;-53
2023/01/07 10:49:26;;;;;;;16.00;11.68;;;5.10;99.90;;;;;;5022322;28;20045;-58
2023/01/07 10:52:17;;;;;;;18.25;12.70;;;5.10;99.90;;;;;;5022588;28;20079;-54
2023/01/07 10:55:13;;;;;;;17.95;11.48;;;5.10;99.90;;;;;;5022443;28;20059;-52
2023/01/07 10:57:40;;;;;;;18.27;11.25;;;5.10;99.90;;;;;;5022346;28;20683;-52
2023/01/07 11:00:11;;;;;;;;;;;5.10;99.90;;;;;;5023006;28;20644;-53
2023/01/07 11:02:46;;;;;;;17.48;11.10;;;5.10;99.90;;;;;;5023134;28;20365;-51
2023/01/07 11:05:13;;;;;;;16.33;11.90;;;5.10;99.90;;;;;;5021558;28;20051;-53
2023/01/07 11:07:47;;;;;;;18.08;11.25;;;5.20;99.90;;;;;;5022824;28;20049;-55
2023/01/07 11:10:24;;;;;;;16.48;11.45;;;5.20;99.90;;;;;;5037030;28;20456;-55
2023/01/07 11:13:05;;;;;;;17.23;11.90;;;5.20;99.90;;;;;;5022349;28;20543;-55
2023/01/07 11:15:43;;;;;;;16.13;11.15;;;5.20;99.90;;;;;;5022191;28;20045;-55
2023/01/07 11:18:30;;;;;;;16.67;10.55;;;5.20;99.90;;;;;;5020334;28;20048;-54
2023/01/07 11:20:59;;;;;;;15.93;10.68;;;5.20;99.90;;;;;;5021193;28;20048;-53
2023/01/07 11:23:30;;;;;;;11.88;8.38;;;5.20;99.90;;;;;;5016720;28;20377;-51
2023/01/07 11:26:30;;;;;;;15.70;10.30;;;5.20;99.90;;;;;;5022885;28;20044;-54
2023/01/07 11:29:14;;;;;;;15.23;9.68;;;5.20;99.90;;;;;;4983392;28;20060;-55
2023/01/07 11:32:02;;;;;;;17.10;10.98;;;5.30;99.90;;;;;;5021727;28;20045;-53
2023/01/07 11:34:34;;;;;;;17.20;11.23;;;5.30;99.90;;;;;;4998410;28;20404;-54
2023/01/07 11:37:02;;;;;;;19.25;10.82;;;5.30;99.90;;;;;;5022070;28;20776;-51
2023/01/07 11:39:34;;;;;;;15.32;11.43;;;5.40;99.90;;;;;;5022402;28;20056;-53
2023/01/07 11:45:19;;;;;;;14.07;10.13;;;5.40;99.90;;;;;;5022181;28;20037;-52
2023/01/07 11:48:23;;;;;;;16.00;10.90;;;5.40;99.90;;;;;;5022567;28;20245;-54
2023/01/07 11:50:52;;;;;;;15.27;10.52;;;5.40;99.90;;;;;;5009599;28;20065;-53
2023/01/07 11:53:49;;;;;;;16.00;10.40;;;5.40;99.90;;;;;;5022024;28;20053;-55
2023/01/07 11:56:19;;;;;;;16.15;10.35;;;5.40;99.90;;;;;;5020408;28;20053;-52
2023/01/07 11:58:47;;;;;;;15.65;10.75;;;5.40;99.90;;;;;;5022707;28;20045;-54
2023/01/07 12:01:20;;;;;;;16.58;10.82;;;5.40;99.90;;;;;;5021456;28;20254;-53
2023/01/07 12:03:53;;;;;;;14.45;9.80;;;5.40;99.90;;;;;;5036741;28;20196;-54
2023/01/07 12:06:27;;;;;;;13.20;9.02;;;5.50;99.90;;;;;;5019574;28;20049;-54
2023/01/07 12:09:07;;;;;;;11.32;8.45;;;5.40;99.90;;;;;;5023864;28;20441;-52
2023/01/07 12:11:37;;;;;;;11.23;8.60;;;5.50;99.90;;;;;;5025482;28;20048;-53
2023/01/07 12:14:31;;;;;;;15.52;8.65;;;5.50;99.90;;;;;;5024551;28;20068;-53
2023/01/07 12:17:17;;;;;;;11.20;8.23;;;5.60;99.90;;;;;;5023532;28;20041;-52
2023/01/07 12:20:11;;;;;;;12.55;9.23;;;5.60;99.90;;;;;;5025153;28;20068;-50
2023/01/07 12:23:13;;;;;;;10.98;8.43;;;5.60;99.90;;;;;;5024966;28;20041;-53
2023/01/07 12:25:45;;;;;;;12.68;7.20;;;5.70;99.90;;;;;;5023225;28;20060;-55
2023/01/07 12:28:17;;;;;;;11.88;7.97;;;5.70;99.90;;;;;;4998701;28;20064;-53
2023/01/07 12:31:03;;;;;;;10.52;7.88;;;5.80;99.90;;;;;;5023776;28;20502;-53
2023/01/07 12:33:51;;;;;;;11.50;8.13;;;5.90;99.90;;;;;;5025495;28;20485;-53
2023/01/07 12:37:07;;;;;;;12.20;8.02;;;5.90;99.90;;;;;;5041064;28;20474;-52
2023/01/07 12:39:39;;;;;;;11.43;8.15;;;6.00;99.90;;;;;;4966075;28;20188;-53
2023/01/07 12:42:26;;;;;;;9.65;7.57;;;6.30;99.90;;;;;;4983060;28;20061;-54
2023/01/07 12:45:00;;;;;;;10.82;7.93;;;6.70;99.90;;;;;;5001749;28;20669;-54
2023/01/07 12:47:54;;;;;;;10.55;7.97;;;7.20;99.90;;;;;;5024793;28;20711;-53
2023/01/07 12:50:30;;;;;;;10.68;7.93;;;7.70;99.90;;;;;;5016015;28;20053;-53
2023/01/07 12:53:09;;;;;;;9.02;6.93;;;8.00;99.90;;;;;;5023321;28;20044;-54
2023/01/07 12:55:41;;;;;;;13.63;8.95;;;8.40;99.90;;;;;;5024854;28;20057;-54
2023/01/07 12:58:27;;;;;;;10.80;7.97;;;8.80;99.90;;;;;;5015898;28;20114;-54
2023/01/07 13:01:10;;;;;;;10.15;7.45;;;9.10;99.90;;;;;;5024909;28;20299;-53
2023/01/07 13:04:15;;;;;;;10.48;7.53;;;9.20;99.90;;;;;;5025315;28;20120;-54
2023/01/07 13:06:49;;;;;;;9.52;7.13;;;9.60;99.90;;;;;;5038429;28;20500;-52
2023/01/07 13:09:44;;;;;;;9.00;7.45;;;9.80;99.90;;;;;;5024361;28;20076;-52
2023/01/07 13:15:32;;;;;;;8.60;6.97;;;10.30;99.90;;;;;;5023677;28;20403;-52
2023/01/07 13:18:13;;;;;;;11.13;8.20;;;10.60;99.90;;;;;;5038712;28;20442;-54
2023/01/07 13:20:59;;;;;;;10.82;8.43;;;10.90;99.90;;;;;;5038007;28;20478;-54
2023/01/07 13:23:47;;;;;;;11.02;8.48;;;11.00;99.90;;;;;;5023322;28;20130;-56
2023/01/07 13:26:29;;;;;;;10.07;8.48;;;11.00;99.90;;;;;;5036916;28;20487;-54
2023/01/07 13:29:28;;;;;;;9.32;7.43;;;10.90;99.90;;;;;;5023962;28;20087;-54